sensor_id;sensor_type;location;lat;lon;timestamp;P1;durP1;ratioP1;P2;durP2;ratioP2
64295;SDS011;51082;38.236;15.432;2023-07-20T00:00:41;6.75;;;1.77;;
64295;SDS011;51082;38.236;15.432;2023-07-20T00:01:43;3.15;;;1.10;;
64295;SDS011;51082;38.236;15.432;2023-07-20T00:02:49;2.03;;;1.23;;
64295;SDS011;51082;38.236;15.432;2023-07-20T00:03:54;2.08;;;1.40;;
64295;SDS011;51082;38.236;15.432;2023-07-20T00:04:56;3.83;;;1.40;;
64295;SDS011;51082;38.236;15.432;2023-07-20T00:05:58;6.13;;;1.38;;
64295;SDS011;51082;38.236;15.432;2023-07-20T00:07:00;2.47;;;1.40;;
64295;SDS011;51082;38.236;15.432;2023-07-20T00:08:03;1.30;;;1.20;;
64295;SDS011;51082;38.236;15.432;2023-07-20T00:09:05;6.85;;;1.48;;
64295;SDS011;51082;38.236;15.432;2023-07-20T00:10:08;7.85;;;2.20;;
64295;SDS011;51082;38.236;15.432;2023-07-20T00:11:10;3.40;;;1.70;;
64295;SDS011;51082;38.236;15.432;2023-07-20T00:12:14;1.73;;;1.08;;
64295;SDS011;51082;38.236;15.432;2023-07-20T00:13:15;1.38;;;1.10;;
64295;SDS011;51082;38.236;15.432;2023-07-20T00:14:19;1.52;;;1.30;;
64295;SDS011;51082;38.236;15.432;2023-07-20T00:15:21;1.58;;;1.48;;
64295;SDS011;51082;38.236;15.432;2023-07-20T00:16:24;2.60;;;1.52;;
64295;SDS011;51082;38.236;15.432;2023-07-20T00:17:25;1.20;;;1.00;;
64295;SDS011;51082;38.236;15.432;2023-07-20T00:18:28;1.38;;;1.05;;
64295;SDS011;51082;38.236;15.432;2023-07-20T00:19:31;3.70;;;1.15;;
64295;SDS011;51082;38.236;15.432;2023-07-20T00:20:34;1.27;;;0.95;;
64295;SDS011;51082;38.236;15.432;2023-07-20T00:21:35;3.25;;;1.58;;
64295;SDS011;51082;38.236;15.432;2023-07-20T00:22:38;4.50;;;2.13;;
64295;SDS011;51082;38.236;15.432;2023-07-20T00:23:40;2.08;;;1.05;;
64295;SDS011;51082;38.236;15.432;2023-07-20T00:24:43;1.33;;;0.98;;
64295;SDS011;51082;38.236;15.432;2023-07-20T00:25:44;1.52;;;1.33;;
64295;SDS011;51082;38.236;15.432;2023-07-20T00:26:47;4.70;;;1.67;;
64295;SDS011;51082;38.236;15.432;2023-07-20T00:27:50;1.90;;;1.15;;
64295;SDS011;51082;38.236;15.432;2023-07-20T00:28:52;1.23;;;1.13;;
64295;SDS011;51082;38.236;15.432;2023-07-20T00:29:54;11.88;;;2.42;;
64295;SDS011;51082;38.236;15.432;2023-07-20T00:30:56;3.13;;;1.38;;
64295;SDS011;51082;38.236;15.432;2023-07-20T00:32:01;5.13;;;1.30;;
64295;SDS011;51082;38.236;15.432;2023-07-20T00:33:06;3.22;;;1.65;;
64295;SDS011;51082;38.236;15.432;2023-07-20T00:34:09;1.42;;;1.13;;
64295;SDS011;51082;38.236;15.432;2023-07-20T00:35:13;5.32;;;1.48;;
64295;SDS011;51082;38.236;15.432;2023-07-20T00:36:15;3.03;;;1.60;;
64295;SDS011;51082;38.236;15.432;2023-07-20T00:37:17;2.08;;;1.35;;
64295;SDS011;51082;38.236;15.432;2023-07-20T00:38:20;6.03;;;1.42;;
64295;SDS011;51082;38.236;15.432;2023-07-20T00:39:21;3.30;;;1.25;;
64295;SDS011;51082;38.236;15.432;2023-07-20T00:40:24;10.20;;;1.30;;
64295;SDS011;51082;38.236;15.432;2023-07-20T00:41:26;5.22;;;1.65;;
64295;SDS011;51082;38.236;15.432;2023-07-20T00:42:30;2.75;;;1.38;;
64295;SDS011;51082;38.236;15.432;2023-07-20T00:43:32;5.88;;;1.55;;
64295;SDS011;51082;38.236;15.432;2023-07-20T00:44:34;5.63;;;1.33;;
64295;SDS011;51082;38.236;15.432;2023-07-20T00:45:36;2.25;;;1.30;;
64295;SDS011;51082;38.236;15.432;2023-07-20T00:46:39;2.72;;;0.95;;
64295;SDS011;51082;38.236;15.432;2023-07-20T00:47:42;4.13;;;1.50;;
64295;SDS011;51082;38.236;15.432;2023-07-20T00:48:45;6.47;;;1.55;;
64295;SDS011;51082;38.236;15.432;2023-07-20T00:49:47;3.58;;;1.55;;
64295;SDS011;51082;38.236;15.432;2023-07-20T00:50:51;2.78;;;1.05;;
64295;SDS011;51082;38.236;15.432;2023-07-20T00:51:53;4.65;;;2.13;;
64295;SDS011;51082;38.236;15.432;2023-07-20T00:52:56;2.33;;;1.38;;
64295;SDS011;51082;38.236;15.432;2023-07-20T00:53:58;5.25;;;1.50;;
64295;SDS011;51082;38.236;15.432;2023-07-20T00:55:00;3.92;;;1.38;;
64295;SDS011;51082;38.236;15.432;2023-07-20T00:56:02;6.03;;;1.63;;
64295;SDS011;51082;38.236;15.432;2023-07-20T00:57:05;1.95;;;1.50;;
64295;SDS011;51082;38.236;15.432;2023-07-20T00:58:08;5.60;;;1.25;;
64295;SDS011;51082;38.236;15.432;2023-07-20T00:59:12;3.50;;;1.17;;
64295;SDS011;51082;38.236;15.432;2023-07-20T01:00:14;4.13;;;1.38;;
64295;SDS011;51082;38.236;15.432;2023-07-20T01:01:17;5.25;;;1.13;;
64295;SDS011;51082;38.236;15.432;2023-07-20T01:02:19;1.35;;;1.20;;
64295;SDS011;51082;38.236;15.432;2023-07-20T01:03:22;2.08;;;1.48;;
64295;SDS011;51082;38.236;15.432;2023-07-20T01:04:23;5.03;;;1.27;;
64295;SDS011;51082;38.236;15.432;2023-07-20T01:05:30;3.65;;;1.83;;
64295;SDS011;51082;38.236;15.432;2023-07-20T01:06:44;0.77;;;0.70;;
64295;SDS011;51082;38.236;15.432;2023-07-20T01:07:56;2.97;;;1.25;;
64295;SDS011;51082;38.236;15.432;2023-07-20T01:09:05;3.83;;;1.48;;
64295;SDS011;51082;38.236;15.432;2023-07-20T01:10:14;2.97;;;1.23;;
64295;SDS011;51082;38.236;15.432;2023-07-20T01:11:21;8.80;;;1.10;;
64295;SDS011;51082;38.236;15.432;2023-07-20T01:12:31;1.42;;;1.00;;
64295;SDS011;51082;38.236;15.432;2023-07-20T01:13:42;7.45;;;1.65;;
64295;SDS011;51082;38.236;15.432;2023-07-20T01:14:46;1.88;;;1.25;;
64295;SDS011;51082;38.236;15.432;2023-07-20T01:15:53;4.28;;;1.20;;
64295;SDS011;51082;38.236;15.432;2023-07-20T01:17:00;4.55;;;1.17;;
64295;SDS011;51082;38.236;15.432;2023-07-20T01:18:02;0.55;;;0.47;;
64295;SDS011;51082;38.236;15.432;2023-07-20T01:19:05;2.78;;;1.50;;
64295;SDS011;51082;38.236;15.432;2023-07-20T01:20:08;1.77;;;1.00;;
64295;SDS011;51082;38.236;15.432;2023-07-20T01:21:15;1.15;;;0.85;;
64295;SDS011;51082;38.236;15.432;2023-07-20T01:22:31;2.55;;;1.20;;
64295;SDS011;51082;38.236;15.432;2023-07-20T01:24:03;3.35;;;1.42;;
64295;SDS011;51082;38.236;15.432;2023-07-20T01:25:21;4.50;;;1.55;;
64295;SDS011;51082;38.236;15.432;2023-07-20T01:26:38;4.88;;;1.20;;
64295;SDS011;51082;38.236;15.432;2023-07-20T01:29:42;2.85;;;1.45;;
64295;SDS011;51082;38.236;15.432;2023-07-20T01:30:59;3.83;;;1.13;;
64295;SDS011;51082;38.236;15.432;2023-07-20T01:32:17;2.55;;;1.13;;
64295;SDS011;51082;38.236;15.432;2023-07-20T01:33:22;1.65;;;0.80;;
64295;SDS011;51082;38.236;15.432;2023-07-20T01:34:26;4.95;;;1.38;;
64295;SDS011;51082;38.236;15.432;2023-07-20T01:35:30;3.80;;;1.20;;
64295;SDS011;51082;38.236;15.432;2023-07-20T01:36:33;1.95;;;1.05;;
64295;SDS011;51082;38.236;15.432;2023-07-20T01:37:38;0.88;;;0.73;;
64295;SDS011;51082;38.236;15.432;2023-07-20T01:38:40;3.72;;;1.08;;
64295;SDS011;51082;38.236;15.432;2023-07-20T01:39:43;2.03;;;1.63;;
64295;SDS011;51082;38.236;15.432;2023-07-20T01:40:45;2.67;;;0.98;;
64295;SDS011;51082;38.236;15.432;2023-07-20T01:41:48;1.35;;;1.10;;
64295;SDS011;51082;38.236;15.432;2023-07-20T01:42:50;3.85;;;1.38;;
64295;SDS011;51082;38.236;15.432;2023-07-20T01:43:52;5.75;;;1.33;;
64295;SDS011;51082;38.236;15.432;2023-07-20T01:44:55;3.40;;;1.42;;
64295;SDS011;51082;38.236;15.432;2023-07-20T01:45:56;1.40;;;1.05;;
64295;SDS011;51082;38.236;15.432;2023-07-20T01:47:00;3.95;;;1.65;;
64295;SDS011;51082;38.236;15.432;2023-07-20T01:48:02;2.08;;;1.17;;
64295;SDS011;51082;38.236;15.432;2023-07-20T01:49:05;3.30;;;1.83;;
64295;SDS011;51082;38.236;15.432;2023-07-20T01:50:07;2.85;;;1.30;;
64295;SDS011;51082;38.236;15.432;2023-07-20T01:51:10;3.50;;;1.23;;
64295;SDS011;51082;38.236;15.432;2023-07-20T01:52:12;5.00;;;1.48;;
64295;SDS011;51082;38.236;15.432;2023-07-20T01:53:16;2.72;;;1.15;;
64295;SDS011;51082;38.236;15.432;2023-07-20T01:54:17;1.65;;;1.40;;
64295;SDS011;51082;38.236;15.432;2023-07-20T01:55:20;1.42;;;1.20;;
64295;SDS011;51082;38.236;15.432;2023-07-20T01:56:21;2.15;;;1.27;;
64295;SDS011;51082;38.236;15.432;2023-07-20T01:57:24;6.82;;;2.08;;
64295;SDS011;51082;38.236;15.432;2023-07-20T01:58:25;1.40;;;1.00;;
64295;SDS011;51082;38.236;15.432;2023-07-20T01:59:27;3.00;;;1.13;;
64295;SDS011;51082;38.236;15.432;2023-07-20T02:00:30;1.73;;;1.55;;
64295;SDS011;51082;38.236;15.432;2023-07-20T02:01:32;7.85;;;1.60;;
64295;SDS011;51082;38.236;15.432;2023-07-20T02:02:36;1.60;;;1.08;;
64295;SDS011;51082;38.236;15.432;2023-07-20T02:03:38;3.38;;;1.45;;
64295;SDS011;51082;38.236;15.432;2023-07-20T02:04:40;2.03;;;0.90;;
64295;SDS011;51082;38.236;15.432;2023-07-20T02:05:42;6.00;;;1.67;;
64295;SDS011;51082;38.236;15.432;2023-07-20T02:06:45;2.72;;;1.20;;
64295;SDS011;51082;38.236;15.432;2023-07-20T02:07:47;3.22;;;1.20;;
64295;SDS011;51082;38.236;15.432;2023-07-20T02:08:50;5.65;;;1.20;;
64295;SDS011;51082;38.236;15.432;2023-07-20T02:09:51;2.95;;;1.65;;
64295;SDS011;51082;38.236;15.432;2023-07-20T02:10:54;2.00;;;1.20;;
64295;SDS011;51082;38.236;15.432;2023-07-20T02:11:56;1.70;;;1.60;;
64295;SDS011;51082;38.236;15.432;2023-07-20T02:12:59;2.90;;;1.23;;
64295;SDS011;51082;38.236;15.432;2023-07-20T02:14:00;1.38;;;1.10;;
64295;SDS011;51082;38.236;15.432;2023-07-20T02:15:03;7.72;;;1.27;;
64295;SDS011;51082;38.236;15.432;2023-07-20T02:16:05;2.78;;;1.35;;
64295;SDS011;51082;38.236;15.432;2023-07-20T02:17:08;6.60;;;1.88;;
64295;SDS011;51082;38.236;15.432;2023-07-20T02:18:13;5.43;;;1.50;;
64295;SDS011;51082;38.236;15.432;2023-07-20T02:19:14;1.77;;;1.08;;
64295;SDS011;51082;38.236;15.432;2023-07-20T02:20:17;2.50;;;1.88;;
64295;SDS011;51082;38.236;15.432;2023-07-20T02:21:20;7.00;;;1.38;;
64295;SDS011;51082;38.236;15.432;2023-07-20T02:22:22;4.43;;;1.70;;
64295;SDS011;51082;38.236;15.432;2023-07-20T02:23:24;3.78;;;1.90;;
64295;SDS011;51082;38.236;15.432;2023-07-20T02:24:27;4.13;;;1.38;;
64295;SDS011;51082;38.236;15.432;2023-07-20T02:25:29;6.35;;;1.60;;
64295;SDS011;51082;38.236;15.432;2023-07-20T02:26:31;3.58;;;1.55;;
64295;SDS011;51082;38.236;15.432;2023-07-20T02:27:33;2.47;;;1.27;;
64295;SDS011;51082;38.236;15.432;2023-07-20T02:28:36;3.42;;;1.58;;
64295;SDS011;51082;38.236;15.432;2023-07-20T02:29:37;2.25;;;1.33;;
64295;SDS011;51082;38.236;15.432;2023-07-20T02:30:41;1.00;;;0.88;;
64295;SDS011;51082;38.236;15.432;2023-07-20T02:31:42;4.65;;;1.30;;
64295;SDS011;51082;38.236;15.432;2023-07-20T02:32:45;6.10;;;1.50;;
64295;SDS011;51082;38.236;15.432;2023-07-20T02:33:50;4.53;;;1.55;;
64295;SDS011;51082;38.236;15.432;2023-07-20T02:34:53;2.10;;;1.42;;
64295;SDS011;51082;38.236;15.432;2023-07-20T02:35:54;6.35;;;1.85;;
64295;SDS011;51082;38.236;15.432;2023-07-20T02:36:57;2.30;;;1.25;;
64295;SDS011;51082;38.236;15.432;2023-07-20T02:38:01;3.17;;;1.15;;
64295;SDS011;51082;38.236;15.432;2023-07-20T02:39:05;2.15;;;1.42;;
64295;SDS011;51082;38.236;15.432;2023-07-20T02:40:07;2.38;;;0.85;;
64295;SDS011;51082;38.236;15.432;2023-07-20T02:41:12;1.40;;;1.00;;
64295;SDS011;51082;38.236;15.432;2023-07-20T02:42:14;4.32;;;1.63;;
64295;SDS011;51082;38.236;15.432;2023-07-20T02:43:17;1.65;;;0.90;;
64295;SDS011;51082;38.236;15.432;2023-07-20T02:44:18;1.88;;;1.30;;
64295;SDS011;51082;38.236;15.432;2023-07-20T02:45:21;3.17;;;1.13;;
64295;SDS011;51082;38.236;15.432;2023-07-20T02:46:23;3.33;;;1.38;;
64295;SDS011;51082;38.236;15.432;2023-07-20T02:47:25;10.05;;;1.80;;
64295;SDS011;51082;38.236;15.432;2023-07-20T02:48:27;3.28;;;1.17;;
64295;SDS011;51082;38.236;15.432;2023-07-20T02:49:31;2.92;;;1.13;;
64295;SDS011;51082;38.236;15.432;2023-07-20T02:50:33;2.10;;;1.13;;
64295;SDS011;51082;38.236;15.432;2023-07-20T02:51:37;5.53;;;1.15;;
64295;SDS011;51082;38.236;15.432;2023-07-20T02:52:38;3.08;;;1.15;;
64295;SDS011;51082;38.236;15.432;2023-07-20T02:53:41;6.72;;;1.77;;
64295;SDS011;51082;38.236;15.432;2023-07-20T02:54:43;2.00;;;1.00;;
64295;SDS011;51082;38.236;15.432;2023-07-20T02:55:46;2.75;;;1.58;;
64295;SDS011;51082;38.236;15.432;2023-07-20T02:56:48;2.92;;;1.38;;
64295;SDS011;51082;38.236;15.432;2023-07-20T02:57:51;2.20;;;1.10;;
64295;SDS011;51082;38.236;15.432;2023-07-20T02:58:52;1.92;;;1.42;;
64295;SDS011;51082;38.236;15.432;2023-07-20T02:59:55;3.97;;;1.58;;
64295;SDS011;51082;38.236;15.432;2023-07-20T03:00:56;3.92;;;1.50;;
64295;SDS011;51082;38.236;15.432;2023-07-20T03:01:59;3.05;;;1.08;;
64295;SDS011;51082;38.236;15.432;2023-07-20T03:03:01;4.13;;;1.65;;
64295;SDS011;51082;38.236;15.432;2023-07-20T03:04:03;3.35;;;1.23;;
64295;SDS011;51082;38.236;15.432;2023-07-20T03:05:07;6.20;;;1.73;;
64295;SDS011;51082;38.236;15.432;2023-07-20T03:06:11;1.65;;;1.25;;
64295;SDS011;51082;38.236;15.432;2023-07-20T03:07:13;2.58;;;1.42;;
64295;SDS011;51082;38.236;15.432;2023-07-20T03:08:15;2.08;;;1.02;;
64295;SDS011;51082;38.236;15.432;2023-07-20T03:09:17;3.88;;;1.92;;
64295;SDS011;51082;38.236;15.432;2023-07-20T03:10:19;5.50;;;1.33;;
64295;SDS011;51082;38.236;15.432;2023-07-20T03:11:21;5.97;;;1.15;;
64295;SDS011;51082;38.236;15.432;2023-07-20T03:12:24;4.35;;;1.45;;
64295;SDS011;51082;38.236;15.432;2023-07-20T03:13:25;2.47;;;1.00;;
64295;SDS011;51082;38.236;15.432;2023-07-20T03:14:28;6.97;;;1.65;;
64295;SDS011;51082;38.236;15.432;2023-07-20T03:15:30;2.33;;;1.08;;
64295;SDS011;51082;38.236;15.432;2023-07-20T03:16:33;2.70;;;1.17;;
64295;SDS011;51082;38.236;15.432;2023-07-20T03:17:34;6.30;;;1.48;;
64295;SDS011;51082;38.236;15.432;2023-07-20T03:18:37;1.42;;;1.17;;
64295;SDS011;51082;38.236;15.432;2023-07-20T03:19:39;2.22;;;1.33;;
64295;SDS011;51082;38.236;15.432;2023-07-20T03:20:43;6.38;;;1.33;;
64295;SDS011;51082;38.236;15.432;2023-07-20T03:21:45;1.65;;;1.10;;
64295;SDS011;51082;38.236;15.432;2023-07-20T03:22:48;3.67;;;1.73;;
64295;SDS011;51082;38.236;15.432;2023-07-20T03:23:50;1.80;;;1.08;;
64295;SDS011;51082;38.236;15.432;2023-07-20T03:24:53;1.13;;;1.02;;
64295;SDS011;51082;38.236;15.432;2023-07-20T03:25:55;2.85;;;1.23;;
64295;SDS011;51082;38.236;15.432;2023-07-20T03:26:56;3.00;;;1.42;;
64295;SDS011;51082;38.236;15.432;2023-07-20T03:27:59;4.35;;;1.25;;
64295;SDS011;51082;38.236;15.432;2023-07-20T03:29:00;5.82;;;1.13;;
64295;SDS011;51082;38.236;15.432;2023-07-20T03:30:03;5.07;;;1.00;;
64295;SDS011;51082;38.236;15.432;2023-07-20T03:31:08;2.85;;;1.45;;
64295;SDS011;51082;38.236;15.432;2023-07-20T03:32:10;1.88;;;0.98;;
64295;SDS011;51082;38.236;15.432;2023-07-20T03:33:12;3.38;;;1.27;;
64295;SDS011;51082;38.236;15.432;2023-07-20T03:34:14;2.10;;;1.15;;
64295;SDS011;51082;38.236;15.432;2023-07-20T03:35:16;3.20;;;1.10;;
64295;SDS011;51082;38.236;15.432;2023-07-20T03:36:21;2.35;;;1.25;;
64295;SDS011;51082;38.236;15.432;2023-07-20T03:37:24;6.22;;;1.38;;
64295;SDS011;51082;38.236;15.432;2023-07-20T03:38:26;1.65;;;1.10;;
64295;SDS011;51082;38.236;15.432;2023-07-20T03:39:27;1.70;;;1.05;;
64295;SDS011;51082;38.236;15.432;2023-07-20T03:40:30;1.95;;;1.05;;
64295;SDS011;51082;38.236;15.432;2023-07-20T03:41:32;3.83;;;1.20;;
64295;SDS011;51082;38.236;15.432;2023-07-20T03:42:34;2.72;;;1.85;;
64295;SDS011;51082;38.236;15.432;2023-07-20T03:43:37;2.88;;;1.73;;
64295;SDS011;51082;38.236;15.432;2023-07-20T03:44:38;2.55;;;1.30;;
64295;SDS011;51082;38.236;15.432;2023-07-20T03:45:41;3.42;;;1.52;;
64295;SDS011;51082;38.236;15.432;2023-07-20T03:46:43;1.85;;;1.45;;
64295;SDS011;51082;38.236;15.432;2023-07-20T03:47:46;7.63;;;1.52;;
64295;SDS011;51082;38.236;15.432;2023-07-20T03:48:49;1.75;;;0.93;;
64295;SDS011;51082;38.236;15.432;2023-07-20T03:49:51;3.13;;;1.52;;
64295;SDS011;51082;38.236;15.432;2023-07-20T03:50:53;1.52;;;1.33;;
64295;SDS011;51082;38.236;15.432;2023-07-20T03:51:58;2.65;;;0.80;;
64295;SDS011;51082;38.236;15.432;2023-07-20T03:52:59;2.67;;;1.05;;
64295;SDS011;51082;38.236;15.432;2023-07-20T03:54:02;5.13;;;2.38;;
64295;SDS011;51082;38.236;15.432;2023-07-20T03:55:04;2.60;;;1.60;;
64295;SDS011;51082;38.236;15.432;2023-07-20T03:56:07;2.03;;;1.15;;
64295;SDS011;51082;38.236;15.432;2023-07-20T03:57:09;4.15;;;1.33;;
64295;SDS011;51082;38.236;15.432;2023-07-20T03:58:11;4.00;;;1.40;;
64295;SDS011;51082;38.236;15.432;2023-07-20T03:59:13;3.40;;;1.65;;
64295;SDS011;51082;38.236;15.432;2023-07-20T04:00:16;3.00;;;1.65;;
64295;SDS011;51082;38.236;15.432;2023-07-20T04:01:17;3.78;;;1.40;;
64295;SDS011;51082;38.236;15.432;2023-07-20T04:02:19;5.25;;;1.35;;
64295;SDS011;51082;38.236;15.432;2023-07-20T04:03:22;4.82;;;1.25;;
64295;SDS011;51082;38.236;15.432;2023-07-20T04:04:27;2.40;;;1.00;;
64295;SDS011;51082;38.236;15.432;2023-07-20T04:05:30;3.60;;;1.67;;
64295;SDS011;51082;38.236;15.432;2023-07-20T04:06:32;2.72;;;1.58;;
64295;SDS011;51082;38.236;15.432;2023-07-20T04:07:36;10.77;;;1.85;;
64295;SDS011;51082;38.236;15.432;2023-07-20T04:08:38;2.03;;;1.10;;
64295;SDS011;51082;38.236;15.432;2023-07-20T04:09:40;2.20;;;1.38;;
64295;SDS011;51082;38.236;15.432;2023-07-20T04:10:43;2.42;;;1.10;;
64295;SDS011;51082;38.236;15.432;2023-07-20T04:11:46;4.10;;;2.13;;
64295;SDS011;51082;38.236;15.432;2023-07-20T04:12:48;3.33;;;1.08;;
64295;SDS011;51082;38.236;15.432;2023-07-20T04:13:50;4.35;;;1.30;;
64295;SDS011;51082;38.236;15.432;2023-07-20T04:15:10;2.63;;;1.45;;
64295;SDS011;51082;38.236;15.432;2023-07-20T04:16:14;4.57;;;0.98;;
64295;SDS011;51082;38.236;15.432;2023-07-20T04:17:15;2.72;;;1.50;;
64295;SDS011;51082;38.236;15.432;2023-07-20T04:18:19;1.73;;;1.35;;
64295;SDS011;51082;38.236;15.432;2023-07-20T04:19:20;6.07;;;1.60;;
64295;SDS011;51082;38.236;15.432;2023-07-20T04:20:23;3.83;;;1.30;;
64295;SDS011;51082;38.236;15.432;2023-07-20T04:21:25;4.68;;;1.77;;
64295;SDS011;51082;38.236;15.432;2023-07-20T04:22:29;4.88;;;1.35;;
64295;SDS011;51082;38.236;15.432;2023-07-20T04:23:32;3.05;;;2.03;;
64295;SDS011;51082;38.236;15.432;2023-07-20T04:24:36;3.45;;;1.48;;
64295;SDS011;51082;38.236;15.432;2023-07-20T04:25:38;2.17;;;1.67;;
64295;SDS011;51082;38.236;15.432;2023-07-20T04:26:42;2.53;;;1.52;;
64295;SDS011;51082;38.236;15.432;2023-07-20T04:27:44;3.67;;;1.30;;
64295;SDS011;51082;38.236;15.432;2023-07-20T04:28:45;3.55;;;1.60;;
64295;SDS011;51082;38.236;15.432;2023-07-20T04:29:48;2.30;;;1.50;;
64295;SDS011;51082;38.236;15.432;2023-07-20T04:30:50;4.35;;;2.10;;
64295;SDS011;51082;38.236;15.432;2023-07-20T04:31:53;3.67;;;1.92;;
64295;SDS011;51082;38.236;15.432;2023-07-20T04:32:55;2.72;;;1.55;;
64295;SDS011;51082;38.236;15.432;2023-07-20T04:33:58;2.55;;;1.67;;
64295;SDS011;51082;38.236;15.432;2023-07-20T04:34:59;2.75;;;1.98;;
64295;SDS011;51082;38.236;15.432;2023-07-20T04:36:02;10.18;;;1.42;;
64295;SDS011;51082;38.236;15.432;2023-07-20T04:37:05;4.45;;;1.63;;
64295;SDS011;51082;38.236;15.432;2023-07-20T04:38:07;6.05;;;1.90;;
64295;SDS011;51082;38.236;15.432;2023-07-20T04:39:11;3.03;;;1.90;;
64295;SDS011;51082;38.236;15.432;2023-07-20T04:40:15;4.25;;;1.73;;
64295;SDS011;51082;38.236;15.432;2023-07-20T04:41:17;5.25;;;2.00;;
64295;SDS011;51082;38.236;15.432;2023-07-20T04:42:20;1.92;;;1.63;;
64295;SDS011;51082;38.236;15.432;2023-07-20T04:43:22;4.03;;;2.22;;
64295;SDS011;51082;38.236;15.432;2023-07-20T04:44:24;11.88;;;1.77;;
64295;SDS011;51082;38.236;15.432;2023-07-20T04:45:26;3.90;;;1.83;;
64295;SDS011;51082;38.236;15.432;2023-07-20T04:46:29;1.48;;;1.23;;
64295;SDS011;51082;38.236;15.432;2023-07-20T04:47:30;3.33;;;1.20;;
64295;SDS011;51082;38.236;15.432;2023-07-20T04:48:33;1.30;;;1.02;;
64295;SDS011;51082;38.236;15.432;2023-07-20T04:49:35;2.17;;;1.63;;
64295;SDS011;51082;38.236;15.432;2023-07-20T04:50:37;5.80;;;1.98;;
64295;SDS011;51082;38.236;15.432;2023-07-20T04:51:41;2.03;;;1.25;;
64295;SDS011;51082;38.236;15.432;2023-07-20T04:52:43;5.60;;;1.58;;
64295;SDS011;51082;38.236;15.432;2023-07-20T04:53:46;2.50;;;1.73;;
64295;SDS011;51082;38.236;15.432;2023-07-20T04:54:51;4.20;;;1.58;;
64295;SDS011;51082;38.236;15.432;2023-07-20T04:55:53;2.95;;;2.25;;
64295;SDS011;51082;38.236;15.432;2023-07-20T04:56:55;3.08;;;1.90;;
64295;SDS011;51082;38.236;15.432;2023-07-20T04:57:57;3.53;;;1.90;;
64295;SDS011;51082;38.236;15.432;2023-07-20T04:59:00;2.78;;;1.98;;
64295;SDS011;51082;38.236;15.432;2023-07-20T05:00:02;6.28;;;2.22;;
64295;SDS011;51082;38.236;15.432;2023-07-20T05:01:05;4.22;;;2.15;;
64295;SDS011;51082;38.236;15.432;2023-07-20T05:02:07;2.55;;;1.27;;
64295;SDS011;51082;38.236;15.432;2023-07-20T05:03:09;5.05;;;2.20;;
64295;SDS011;51082;38.236;15.432;2023-07-20T05:04:11;7.93;;;2.75;;
64295;SDS011;51082;38.236;15.432;2023-07-20T05:05:13;4.25;;;2.35;;
64295;SDS011;51082;38.236;15.432;2023-07-20T05:06:16;9.68;;;2.00;;
64295;SDS011;51082;38.236;15.432;2023-07-20T05:07:18;8.30;;;2.28;;
64295;SDS011;51082;38.236;15.432;2023-07-20T05:08:21;9.13;;;2.25;;
64295;SDS011;51082;38.236;15.432;2023-07-20T05:09:23;6.72;;;2.50;;
64295;SDS011;51082;38.236;15.432;2023-07-20T05:10:27;6.95;;;2.03;;
64295;SDS011;51082;38.236;15.432;2023-07-20T05:11:28;3.83;;;1.95;;
64295;SDS011;51082;38.236;15.432;2023-07-20T05:12:31;8.02;;;2.15;;
64295;SDS011;51082;38.236;15.432;2023-07-20T05:13:33;10.80;;;2.95;;
64295;SDS011;51082;38.236;15.432;2023-07-20T05:14:35;6.50;;;2.35;;
64295;SDS011;51082;38.236;15.432;2023-07-20T05:15:37;4.25;;;2.40;;
64295;SDS011;51082;38.236;15.432;2023-07-20T05:16:40;8.32;;;2.03;;
64295;SDS011;51082;38.236;15.432;2023-07-20T05:17:41;2.90;;;1.92;;
64295;SDS011;51082;38.236;15.432;2023-07-20T05:18:44;4.07;;;2.03;;
64295;SDS011;51082;38.236;15.432;2023-07-20T05:19:46;9.93;;;3.17;;
64295;SDS011;51082;38.236;15.432;2023-07-20T05:20:48;3.13;;;2.20;;
64295;SDS011;51082;38.236;15.432;2023-07-20T05:21:50;4.20;;;1.90;;
64295;SDS011;51082;38.236;15.432;2023-07-20T05:22:53;11.90;;;2.72;;
64295;SDS011;51082;38.236;15.432;2023-07-20T05:23:54;6.78;;;2.17;;
64295;SDS011;51082;38.236;15.432;2023-07-20T05:24:57;5.00;;;1.98;;
64295;SDS011;51082;38.236;15.432;2023-07-20T05:26:00;7.85;;;2.10;;
64295;SDS011;51082;38.236;15.432;2023-07-20T05:27:03;7.65;;;2.78;;
64295;SDS011;51082;38.236;15.432;2023-07-20T05:28:05;3.65;;;2.25;;
64295;SDS011;51082;38.236;15.432;2023-07-20T05:29:08;4.75;;;2.22;;
64295;SDS011;51082;38.236;15.432;2023-07-20T05:30:09;3.95;;;2.63;;
64295;SDS011;51082;38.236;15.432;2023-07-20T05:31:13;5.45;;;2.70;;
64295;SDS011;51082;38.236;15.432;2023-07-20T05:32:14;5.70;;;2.60;;
64295;SDS011;51082;38.236;15.432;2023-07-20T05:33:17;4.55;;;1.92;;
64295;SDS011;51082;38.236;15.432;2023-07-20T05:34:19;4.53;;;1.88;;
64295;SDS011;51082;38.236;15.432;2023-07-20T05:35:21;12.57;;;2.83;;
64295;SDS011;51082;38.236;15.432;2023-07-20T05:36:23;4.95;;;2.90;;
64295;SDS011;51082;38.236;15.432;2023-07-20T05:37:26;5.43;;;2.80;;
64295;SDS011;51082;38.236;15.432;2023-07-20T05:38:28;7.78;;;2.85;;
64295;SDS011;51082;38.236;15.432;2023-07-20T05:39:32;6.28;;;2.65;;
64295;SDS011;51082;38.236;15.432;2023-07-20T05:40:35;6.28;;;1.85;;
64295;SDS011;51082;38.236;15.432;2023-07-20T05:41:41;7.72;;;1.90;;
64295;SDS011;51082;38.236;15.432;2023-07-20T05:42:42;6.45;;;2.63;;
64295;SDS011;51082;38.236;15.432;2023-07-20T05:43:44;8.63;;;2.33;;
64295;SDS011;51082;38.236;15.432;2023-07-20T05:44:47;6.70;;;2.33;;
64295;SDS011;51082;38.236;15.432;2023-07-20T05:45:50;10.10;;;2.05;;
64295;SDS011;51082;38.236;15.432;2023-07-20T05:46:56;7.25;;;2.33;;
64295;SDS011;51082;38.236;15.432;2023-07-20T05:47:57;3.85;;;1.90;;
64295;SDS011;51082;38.236;15.432;2023-07-20T05:49:00;6.18;;;1.98;;
64295;SDS011;51082;38.236;15.432;2023-07-20T05:50:02;2.75;;;1.83;;
64295;SDS011;51082;38.236;15.432;2023-07-20T05:51:05;7.35;;;2.78;;
64295;SDS011;51082;38.236;15.432;2023-07-20T05:52:07;7.03;;;2.25;;
64295;SDS011;51082;38.236;15.432;2023-07-20T05:53:10;6.72;;;2.53;;
64295;SDS011;51082;38.236;15.432;2023-07-20T05:54:11;4.75;;;2.65;;
64295;SDS011;51082;38.236;15.432;2023-07-20T05:55:14;13.07;;;3.45;;
64295;SDS011;51082;38.236;15.432;2023-07-20T05:56:16;9.10;;;2.70;;
64295;SDS011;51082;38.236;15.432;2023-07-20T05:57:20;7.55;;;2.67;;
64295;SDS011;51082;38.236;15.432;2023-07-20T05:58:22;13.32;;;2.50;;
64295;SDS011;51082;38.236;15.432;2023-07-20T05:59:26;7.38;;;2.90;;
64295;SDS011;51082;38.236;15.432;2023-07-20T06:00:30;4.75;;;2.08;;
64295;SDS011;51082;38.236;15.432;2023-07-20T06:01:32;5.55;;;1.85;;
64295;SDS011;51082;38.236;15.432;2023-07-20T06:02:34;8.70;;;3.08;;
64295;SDS011;51082;38.236;15.432;2023-07-20T06:03:37;4.82;;;2.97;;
64295;SDS011;51082;38.236;15.432;2023-07-20T06:04:39;9.32;;;3.03;;
64295;SDS011;51082;38.236;15.432;2023-07-20T06:05:41;5.70;;;2.53;;
64295;SDS011;51082;38.236;15.432;2023-07-20T06:06:43;5.80;;;2.83;;
64295;SDS011;51082;38.236;15.432;2023-07-20T06:07:47;5.13;;;2.00;;
64295;SDS011;51082;38.236;15.432;2023-07-20T06:08:48;4.18;;;2.50;;
64295;SDS011;51082;38.236;15.432;2023-07-20T06:09:50;5.22;;;2.17;;
64295;SDS011;51082;38.236;15.432;2023-07-20T06:10:52;3.78;;;2.03;;
64295;SDS011;51082;38.236;15.432;2023-07-20T06:11:54;7.45;;;2.22;;
64295;SDS011;51082;38.236;15.432;2023-07-20T06:12:58;6.40;;;2.92;;
64295;SDS011;51082;38.236;15.432;2023-07-20T06:14:00;10.10;;;2.28;;
64295;SDS011;51082;38.236;15.432;2023-07-20T06:15:03;9.27;;;2.10;;
64295;SDS011;51082;38.236;15.432;2023-07-20T06:16:05;7.85;;;2.60;;